Blair, NE

8:37 PM CDT on April 21, 2018 (GMT -0500)
Blair Municipal

Weather History for KBTA - January, 2013

Change the Weather History Date:

Thursday, January 31, 2013

  Actual Average (KOMA) Record (KOMA)
Temperature  
Mean Temperature 6 °F -  
Max Temperature 12 °F 35 °F 65 °F (1989)
Min Temperature 0 °F 13 °F -20 °F (1918)
Degree Days  
Heating Degree Days 59    
Moisture  
Dew Point -3 °F    
Average Humidity 65    
Maximum Humidity 78    
Minimum Humidity 55    
Precipitation  
Precipitation 0.00 in - - ()
Sea Level Pressure  
Sea Level Pressure 30.17 in    
Wind  
Wind Speed 13 mph (NW)    
Max Wind Speed 29 mph    
Max Gust Speed 39 mph    
Visibility 10 miles    
Events      
Averages and records for this station are not official NWS values.
T = Trace of Precipitation, MM = Missing Value Source: NWS Daily Summary

Daily Weather History Graph

Daily Weather History Graph

Search for Another Location

Airport or City:

Astronomy

Jan. 31, 2013 Rise Set
Actual Time 7:36 AM CST 5:39 PM CST
Civil Twilight 7:07 AM CST 6:09 PM CST
Nautical Twilight 6:34 AM CST 6:42 PM CST
Astronomical Twilight 6:01 AM CST 7:14 PM CST
Moon 10:47 PM CST (1/31) 9:32 AM CST (1/31)
Length of Visible Light 11h 01m
Length of Day
10h 03m
Waning Gibbous, 79% of the Moon is Illuminated
Jan 31
Waning Gibbous
Feb 3
Last Quarter
Feb 10
New
Feb 17
First Quarter
Feb 25
Full

Hourly Weather History & Observations

Time (CST) Temp. Windchill Dew Point Humidity Pressure Visibility Wind Dir Wind Speed Gust Speed Precip Events Conditions
12:15 AM 12.2 °F 2.9 °F 5.9 °F 76% 29.91 in 10.0 mi WNW 5.8 mph - N/A   Clear
12:35 AM 12.7 °F -2.5 °F 5.9 °F 74% 29.91 in 10.0 mi NW 13.8 mph 17.3 mph N/A   Clear
12:55 AM 12.2 °F -1.8 °F 5.5 °F 75% 29.91 in 10.0 mi NW 11.5 mph 17.3 mph N/A   Clear
1:15 AM 11.7 °F 1.1 °F 5.4 °F 76% 29.92 in 10.0 mi NW 6.9 mph - N/A   Clear
1:35 AM 11.1 °F -3.2 °F 5.0 °F 76% 29.92 in 10.0 mi NW 11.5 mph - N/A   Clear
1:55 AM 10.4 °F -5.4 °F 4.8 °F 78% 29.93 in 10.0 mi NW 13.8 mph - N/A   Clear
2:15 AM 10.0 °F -7.1 °F 3.2 °F 74% 29.94 in 10.0 mi NW 16.1 mph 20.7 mph N/A   Scattered Clouds
2:35 AM 9.7 °F -5.0 °F 2.3 °F 72% 29.95 in 10.0 mi NW 11.5 mph 18.4 mph N/A   Scattered Clouds
2:55 AM 9.5 °F -5.9 °F 2.1 °F 72% 29.95 in 10.0 mi NW 12.7 mph 17.3 mph N/A   Overcast
3:15 AM 9.3 °F -4.6 °F 1.9 °F 72% 29.95 in 10.0 mi NW 10.4 mph 18.4 mph N/A   Overcast
3:35 AM 9.0 °F -6.6 °F 0.9 °F 70% 29.95 in 10.0 mi NW 12.7 mph - N/A   Overcast
3:55 AM 8.6 °F -7.0 °F 0.5 °F 70% 29.95 in 10.0 mi NW 12.7 mph - N/A   Overcast
4:15 AM 8.2 °F -6.0 °F 0.5 °F 71% 29.96 in 10.0 mi NW 10.4 mph 17.3 mph N/A   Mostly Cloudy
4:35 AM 7.3 °F -6.2 °F -0.0 °F 72% 29.97 in 10.0 mi NW 9.2 mph - N/A   Scattered Clouds
4:55 AM 7.0 °F -3.3 °F -0.0 °F 73% 29.98 in 10.0 mi WNW 5.8 mph - N/A   Scattered Clouds
5:15 AM 6.4 °F -3.9 °F 0.1 °F 75% 29.99 in 10.0 mi NW 5.8 mph - N/A   Clear
5:35 AM 6.8 °F -5.9 °F 0.5 °F 75% 30.00 in 10.0 mi NW 8.1 mph - N/A   Mostly Cloudy
6:15 AM 7.5 °F -9.7 °F -0.2 °F 71% 30.00 in 10.0 mi NW 15.0 mph 19.6 mph N/A   Overcast
6:55 AM 7.2 °F -8.9 °F -2.2 °F 66% 30.02 in 10.0 mi NW 12.7 mph - N/A   Mostly Cloudy
7:15 AM 6.6 °F -8.8 °F -2.2 °F 67% 30.04 in 10.0 mi WNW 11.5 mph - N/A   Mostly Cloudy
7:35 AM 6.8 °F -7.8 °F -2.2 °F 67% 30.04 in 10.0 mi NW 10.4 mph - N/A   Mostly Cloudy
7:55 AM 6.8 °F -11.8 °F -3.6 °F 62% 30.05 in 10.0 mi NW 17.3 mph 24.2 mph N/A   Scattered Clouds
8:15 AM 6.8 °F -10.7 °F -3.6 °F 62% 30.06 in 10.0 mi NW 15.0 mph - N/A   Clear
8:35 AM 6.8 °F -11.3 °F -2.9 °F 64% 30.08 in 10.0 mi NW 16.1 mph 24.2 mph N/A   Clear
8:55 AM 7.2 °F -12.9 °F -2.9 °F 63% 30.09 in 10.0 mi NW 20.7 mph 26.5 mph N/A   Clear
9:15 AM 7.3 °F -11.7 °F -3.1 °F 62% 30.11 in 10.0 mi WNW 18.4 mph 24.2 mph N/A   Clear
9:35 AM 7.5 °F -12.4 °F -2.6 °F 63% 30.13 in 10.0 mi NW 20.7 mph 24.2 mph N/A   Clear
9:55 AM 7.0 °F -12.6 °F -3.8 °F 61% 30.15 in 10.0 mi NW 19.6 mph 31.1 mph N/A   Scattered Clouds
10:15 AM 6.4 °F -14.7 °F -4.0 °F 62% 30.17 in 10.0 mi NW 23.0 mph 29.9 mph N/A   Overcast
10:35 AM 6.8 °F -12.4 °F -3.5 °F 63% 30.18 in 10.0 mi NW 18.4 mph 25.3 mph N/A   Overcast
10:55 AM 6.4 °F -14.7 °F -4.2 °F 62% 30.20 in 10.0 mi NW 23.0 mph 32.2 mph N/A   Overcast
11:15 AM 7.0 °F -12.1 °F -2.9 °F 64% 30.21 in 7.0 mi NW 18.4 mph 26.5 mph N/A   Overcast
11:35 AM 7.2 °F -14.6 °F -5.1 °F 57% 30.21 in 10.0 mi NW 25.3 mph 32.2 mph N/A   Scattered Clouds
11:55 AM 7.3 °F -13.5 °F -4.2 °F 59% 30.22 in 10.0 mi NW 23.0 mph 34.5 mph N/A   Scattered Clouds
12:15 PM 7.3 °F -15.5 °F -4.2 °F 59% 30.22 in 10.0 mi NW 28.8 mph 34.5 mph N/A   Mostly Cloudy
12:35 PM 7.2 °F -15.0 °F -5.6 °F 56% 30.22 in 10.0 mi NW 26.5 mph 39.1 mph N/A   Scattered Clouds
12:55 PM 7.2 °F -15.0 °F -5.6 °F 56% 30.23 in 10.0 mi NW 26.5 mph 35.7 mph N/A   Scattered Clouds
1:15 PM 7.7 °F -12.6 °F -4.4 °F 58% 30.24 in 10.0 mi NW 21.9 mph 33.4 mph N/A   Scattered Clouds
1:35 PM 8.4 °F -12.1 °F -4.2 °F 57% 30.24 in 10.0 mi NW 23.0 mph 32.2 mph N/A   Mostly Cloudy
1:55 PM 7.9 °F -11.5 °F -4.4 °F 57% 30.24 in 10.0 mi WNW 19.6 mph 29.9 mph N/A   Scattered Clouds
2:15 PM 8.6 °F -9.5 °F -3.8 °F 57% 30.24 in 10.0 mi WNW 17.3 mph 28.8 mph N/A   Scattered Clouds
2:35 PM 8.6 °F -11.0 °F -4.2 °F 56% 30.25 in 10.0 mi NW 20.7 mph 31.1 mph N/A   Scattered Clouds
2:55 PM 8.2 °F -11.9 °F -4.9 °F 55% 30.26 in 10.0 mi NW 21.9 mph 31.1 mph N/A   Scattered Clouds
3:15 PM 8.4 °F -11.7 °F -4.9 °F 55% 30.26 in 10.0 mi NW 21.9 mph 28.8 mph N/A   Scattered Clouds
3:35 PM 8.2 °F -10.5 °F -5.1 °F 55% 30.28 in 10.0 mi NW 18.4 mph 26.5 mph N/A   Clear
3:55 PM 8.2 °F -11.5 °F -5.1 °F 55% 30.28 in 10.0 mi NW 20.7 mph 26.5 mph N/A   Clear
4:15 PM 8.2 °F -10.5 °F -4.4 °F 57% 30.29 in 10.0 mi NW 18.4 mph 25.3 mph N/A   Clear
4:35 PM 7.7 °F -10.1 °F -4.9 °F 56% 30.30 in 10.0 mi WNW 16.1 mph 24.2 mph N/A   Scattered Clouds
4:55 PM 7.0 °F -11.6 °F -5.6 °F 56% 30.30 in 10.0 mi WNW 17.3 mph - N/A   Scattered Clouds
5:15 PM 6.4 °F -12.8 °F -5.6 °F 58% 30.30 in 10.0 mi NW 18.4 mph 24.2 mph N/A   Clear
5:35 PM 5.7 °F -12.0 °F -6.0 °F 59% 30.30 in 10.0 mi NW 15.0 mph - N/A   Clear
5:55 PM 5.0 °F -13.0 °F -6.2 °F 60% 30.31 in 10.0 mi NW 15.0 mph - N/A   Clear
6:15 PM 4.5 °F -9.8 °F -6.5 °F 60% 30.32 in 10.0 mi WNW 9.2 mph - N/A   Clear
6:35 PM 3.9 °F -12.2 °F -6.7 °F 61% 30.33 in 10.0 mi NW 11.5 mph - N/A   Clear
6:55 PM 3.7 °F -11.6 °F -6.7 °F 62% 30.33 in 10.0 mi NW 10.4 mph 16.1 mph N/A   Clear
7:15 PM 3.0 °F -8.0 °F -6.9 °F 63% 30.34 in 10.0 mi NW 5.8 mph - N/A   Clear
7:35 PM 2.5 °F -11.1 °F -6.7 °F 66% 30.34 in 10.0 mi NW 8.1 mph - N/A   Clear
7:55 PM 3.0 °F -13.3 °F -7.1 °F 63% 30.34 in 10.0 mi NW 11.5 mph 17.3 mph N/A   Clear
8:15 PM 2.7 °F -12.9 °F -7.2 °F 63% 30.35 in 10.0 mi NW 10.4 mph - N/A   Clear
8:35 PM 2.3 °F -11.4 °F -6.9 °F 66% 30.35 in 10.0 mi NW 8.1 mph - N/A   Clear
8:55 PM 2.1 °F -13.6 °F -7.1 °F 66% 30.35 in 10.0 mi NW 10.4 mph - N/A   Clear
9:15 PM 1.4 °F -13.5 °F -7.4 °F 67% 30.36 in 10.0 mi NW 9.2 mph - N/A   Clear
9:35 PM 1.4 °F -11.3 °F -7.6 °F 66% 30.37 in 10.0 mi NW 6.9 mph - N/A   Clear
9:55 PM 0.7 °F -10.7 °F -7.6 °F 68% 30.37 in 10.0 mi WNW 5.8 mph - N/A   Clear
10:15 PM 0.7 °F -12.1 °F -7.8 °F 68% 30.38 in 10.0 mi WNW 6.9 mph - N/A   Clear
10:35 PM 0.5 °F -11.0 °F -7.8 °F 68% 30.38 in 10.0 mi WNW 5.8 mph - N/A   Clear
10:55 PM 0.5 °F -12.3 °F -7.8 °F 68% 30.37 in 10.0 mi NW 6.9 mph - N/A   Clear
11:15 PM 0.5 °F -11.0 °F -7.8 °F 68% 30.37 in 10.0 mi NW 5.8 mph - N/A   Clear
11:35 PM -0.4 °F -12.0 °F -8.0 °F 70% 30.38 in 10.0 mi WNW 5.8 mph - N/A   Clear
11:55 PM -0.2 °F -8.1 °F -7.8 °F 70% 30.38 in 10.0 mi WNW 3.5 mph - N/A   Clear